Time;durP1;ratioP1;P1;durP2;ratioP2;P2;SDS_P1;SDS_P2;PMS_P1;PMS_P2;Temp;Humidity;BMP_temperature;BMP_pressure;BME280_temperature;BME280_humidity;BME280_pressure;Samples;Min_cycle;Max_cycle;Signal;HPM_P1;HPM_P2
2022/07/16 00:02:48;;;;;;;;;;;;;;;18.00;46.31;101572.53;5072172;28;19927;-60
2022/07/16 00:05:13;;;;;;;;;;;;;;;17.98;46.33;101568.16;5074070;28;19920;-56
2022/07/16 00:07:38;;;;;;;;;;;;;;;17.99;46.48;101563.69;5068959;28;20002;-54
2022/07/16 00:10:04;;;;;;;;;;;;;;;17.98;46.69;101559.34;5070034;28;19920;-56
2022/07/16 00:12:29;;;;;;;;;;;;;;;17.98;46.49;101556.69;5054030;28;20290;-56
2022/07/16 00:14:54;;;;;;;;;;;;;;;17.97;46.61;101553.16;5076078;28;19923;-53
2022/07/16 00:17:20;;;;;;;;;;;;;;;17.96;46.80;101554.09;5072093;28;19931;-56
2022/07/16 00:19:45;;;;;;;;;;;;;;;17.96;46.84;101548.75;5072185;28;19924;-53
2022/07/16 00:22:11;;;;;;;;;;;;;;;17.97;46.86;101544.28;5071317;28;19917;-53
2022/07/16 00:24:36;;;;;;;;;;;;;;;17.96;46.96;101545.25;5066008;28;19925;-54
2022/07/16 00:27:02;;;;;;;;;;;;;;;17.94;46.99;101542.69;5064976;28;19916;-56
2022/07/16 00:29:27;;;;;;;;;;;;;;;17.93;47.22;101537.50;5070001;28;19995;-53
2022/07/16 00:31:54;;;;;;;;;;;;;;;17.91;47.10;101534.97;5074619;28;19979;-58
2022/07/16 00:34:20;;;;;;;;;;;;;;;17.91;47.34;101531.44;5053924;28;19928;-53
2022/07/16 00:36:45;;;;;;;;;;;;;;;17.90;47.20;101538.59;5067983;28;20050;-53
2022/07/16 00:39:11;;;;;;;;;;;;;;;17.90;47.35;101535.94;5067718;28;20007;-53
2022/07/16 00:41:37;;;;;;;;;;;;;;;17.91;47.38;101529.63;5074442;28;19912;-55
2022/07/16 00:44:04;;;;;;;;;;;;;;;17.91;47.38;101526.97;5064820;28;19925;-54
2022/07/16 00:46:29;;;;;;;;;;;;;;;17.89;47.56;101526.25;5073656;28;19920;-53
2022/07/16 00:48:55;;;;;;;;;;;;;;;17.88;47.65;101531.66;5073989;28;19928;-55
2022/07/16 00:51:23;;;;;;;;;;;;;;;17.85;47.66;101527.44;5072703;28;19920;-56
2022/07/16 00:53:49;;;;;;;;;;;;;;;17.83;47.92;101526.69;5072838;28;19970;-57
2022/07/16 00:56:15;;;;;;;;;;;;;;;17.80;47.83;101521.59;5068251;28;19989;-56
2022/07/16 00:58:42;;;;;;;;;;;;;;;17.77;48.06;101521.88;5070377;28;20062;-54
2022/07/16 01:01:08;;;;;;;;;;;;;;;17.73;48.09;101513.25;5066450;28;20047;-57
2022/07/16 01:03:34;;;;;;;;;;;;;;;17.70;48.23;101513.47;5065742;28;19931;-55
2022/07/16 01:05:59;;;;;;;;;;;;;;;17.70;48.37;101512.63;5072754;28;19924;-56
2022/07/16 01:08:25;;;;;;;;;;;;;;;17.65;48.48;101516.47;5072347;28;19916;-53
2022/07/16 01:10:51;;;;;;;;;;;;;;;17.64;48.45;101514.78;5063562;28;20772;-52
2022/07/16 01:13:17;;;;;;;;;;;;;;;17.61;48.50;101504.41;5070377;28;20366;-53
2022/07/16 01:15:42;;;;;;;;;;;;;;;17.63;48.63;101507.75;5073039;28;20009;-54
2022/07/16 01:18:07;;;;;;;;;;;;;;;17.59;48.59;101501.00;5071779;28;19963;-52
2022/07/16 01:20:33;;;;;;;;;;;;;;;17.58;48.70;101499.31;5073757;28;19978;-52
2022/07/16 01:22:59;;;;;;;;;;;;;;;17.58;48.79;101496.63;5066168;28;19928;-53
2022/07/16 01:25:24;;;;;;;;;;;;;;;17.58;48.83;101499.31;5071562;28;19939;-53
2022/07/16 01:27:50;;;;;;;;;;;;;;;17.57;48.84;101496.75;5067133;28;19921;-55
2022/07/16 01:30:15;;;;;;;;;;;;;;;17.55;49.12;101496.00;5074415;28;19995;-52
2022/07/16 01:32:43;;;;;;;;;;;;;;;17.52;49.09;101494.44;5072112;28;19927;-53
2022/07/16 01:35:08;;;;;;;;;;;;;;;17.50;49.09;101493.69;5067769;28;19995;-54
2022/07/16 01:37:34;;;;;;;;;;;;;;;17.49;49.15;101486.66;5077452;28;19912;-53
2022/07/16 01:39:59;;;;;;;;;;;;;;;17.48;49.24;101487.63;5064888;28;19974;-53
2022/07/16 01:42:24;;;;;;;;;;;;;;;17.47;49.09;101486.81;5065607;28;19928;-55
2022/07/16 01:44:50;;;;;;;;;;;;;;;17.46;49.19;101482.44;5066378;28;19932;-53
2022/07/16 01:47:15;;;;;;;;;;;;;;;17.45;49.28;101477.25;5067187;28;19983;-53
2022/07/16 01:49:41;;;;;;;;;;;;;;;17.45;49.31;101479.91;5067407;28;19917;-54
2022/07/16 01:52:12;;;;;;;;;;;;;;;17.42;49.50;101469.50;5064017;28;19928;-53
2022/07/16 01:54:42;;;;;;;;;;;;;;;17.40;49.61;101466.09;5066018;28;20379;-53
2022/07/16 01:57:07;;;;;;;;;;;;;;;17.42;49.60;101469.50;5063840;28;20338;-57
2022/07/16 01:59:32;;;;;;;;;;;;;;;17.41;49.60;101457.16;5069332;28;19925;-53
2022/07/16 02:01:58;;;;;;;;;;;;;;;17.40;49.63;101450.13;5053803;28;19970;-54
2022/07/16 02:04:23;;;;;;;;;;;;;;;17.42;49.68;101450.88;5080723;28;19973;-55
2022/07/16 02:06:48;;;;;;;;;;;;;;;17.42;49.58;101446.38;5069808;28;19966;-52
2022/07/16 02:09:14;;;;;;;;;;;;;;;17.40;49.68;101442.16;5072037;28;20012;-55
2022/07/16 02:11:39;;;;;;;;;;;;;;;17.39;49.79;101440.47;5074895;28;19939;-53
2022/07/16 02:14:04;;;;;;;;;;;;;;;17.36;49.84;101436.22;5061526;28;20603;-53
2022/07/16 02:16:30;;;;;;;;;;;;;;;17.35;49.88;101437.19;5069937;28;20485;-53
2022/07/16 02:18:55;;;;;;;;;;;;;;;17.32;50.04;101430.25;5074263;28;19927;-53
2022/07/16 02:21:20;;;;;;;;;;;;;;;17.32;50.10;101438.25;5067911;28;19974;-53
2022/07/16 02:23:46;;;;;;;;;;;;;;;17.32;50.07;101440.91;5064817;28;20304;-56
2022/07/16 02:26:11;;;;;;;;;;;;;;;17.32;49.96;101430.25;5075685;28;19912;-55
2022/07/16 02:28:36;;;;;;;;;;;;;;;17.32;49.96;101432.94;5061567;28;19928;-53
2022/07/16 02:31:01;;;;;;;;;;;;;;;17.31;50.10;101427.72;5071997;28;19960;-53
2022/07/16 02:33:27;;;;;;;;;;;;;;;17.29;50.11;101425.22;5067588;28;20462;-53
2022/07/16 02:35:52;;;;;;;;;;;;;;;17.27;50.16;101416.50;5071081;28;19920;-54
2022/07/16 02:38:17;;;;;;;;;;;;;;;17.26;50.13;101414.78;5069349;28;19924;-53
2022/07/16 02:40:43;;;;;;;;;;;;;;;17.26;50.28;101413.94;5068364;28;19999;-53
2022/07/16 02:43:09;;;;;;;;;;;;;;;17.24;50.28;101413.22;5063325;28;19962;-53
2022/07/16 02:45:36;;;;;;;;;;;;;;;17.22;50.37;101402.69;5068734;28;20063;-53
2022/07/16 02:48:02;;;;;;;;;;;;;;;17.20;50.42;101399.28;5064230;28;19917;-53
2022/07/16 02:50:28;;;;;;;;;;;;;;;17.18;50.52;101403.88;5067571;28;19916;-53
2022/07/16 02:52:53;;;;;;;;;;;;;;;17.16;50.64;101396.03;5066597;28;19924;-53
2022/07/16 02:55:19;;;;;;;;;;;;;;;17.15;50.88;101390.81;5071235;28;19917;-55
2022/07/16 02:57:44;;;;;;;;;;;;;;;17.15;50.71;101396.16;5063915;28;20307;-53
2022/07/16 03:00:11;;;;;;;;;;;;;;;17.15;50.84;101390.81;5065902;28;19920;-53
2022/07/16 03:02:36;;;;;;;;;;;;;;;17.14;50.88;101391.78;5067013;28;19974;-52
2022/07/16 03:05:03;;;;;;;;;;;;;;;17.13;50.98;101392.75;5073559;28;19916;-56
2022/07/16 03:07:28;;;;;;;;;;;;;;;17.10;51.01;101375.19;5070588;28;19912;-56
2022/07/16 03:09:54;;;;;;;;;;;;;;;17.09;51.15;101362.91;5065953;28;19927;-57
2022/07/16 03:12:19;;;;;;;;;;;;;;;17.10;51.23;101369.88;5078285;28;19916;-57
2022/07/16 03:14:45;;;;;;;;;;;;;;;17.11;51.18;101373.41;5066135;28;20066;-56
2022/07/16 03:17:10;;;;;;;;;;;;;;;17.11;51.32;101365.44;5073923;28;19920;-54
2022/07/16 03:19:35;;;;;;;;;;;;;;;17.12;51.35;101369.78;5067435;28;20271;-55
2022/07/16 03:22:01;;;;;;;;;;;;;;;17.13;51.33;101360.84;5066627;28;19931;-53
2022/07/16 03:24:27;;;;;;;;;;;;;;;17.14;51.46;101368.69;5069422;28;19955;-53
2022/07/16 03:26:52;;;;;;;;;;;;;;;17.14;51.40;101374.00;5067195;28;19920;-53
2022/07/16 03:29:17;;;;;;;;;;;;;;;17.13;51.46;101376.78;5066021;28;19924;-52
2022/07/16 03:31:42;;;;;;;;;;;;;;;17.10;51.56;101366.38;5063972;28;19920;-53
2022/07/16 03:34:08;;;;;;;;;;;;;;;17.08;51.61;101358.53;5069480;28;19916;-53
2022/07/16 03:36:33;;;;;;;;;;;;;;;17.08;51.61;101357.69;5069610;28;19917;-53
2022/07/16 03:39:04;;;;;;;;;;;;;;;17.08;51.63;101352.34;5074826;28;19920;-56
2022/07/16 03:41:31;;;;;;;;;;;;;;;17.08;51.73;101357.69;5071693;28;19990;-53
2022/07/16 03:43:56;;;;;;;;;;;;;;;17.10;51.72;101355.75;5073042;28;19924;-53
2022/07/16 03:46:22;;;;;;;;;;;;;;;17.09;51.75;101352.25;5072613;28;19943;-55
2022/07/16 03:48:47;;;;;;;;;;;;;;;17.06;52.06;101345.34;5075062;28;19923;-55
2022/07/16 03:51:12;;;;;;;;;;;;;;;17.03;52.25;101334.09;5071241;28;19927;-56
2022/07/16 03:53:38;;;;;;;;;;;;;;;17.00;52.32;101329.00;5071367;28;19924;-54
2022/07/16 03:56:03;;;;;;;;;;;;;;;16.98;52.44;101326.47;5066125;28;19924;-55
2022/07/16 03:58:29;;;;;;;;;;;;;;;16.98;52.63;101326.47;5054386;28;19924;-53
2022/07/16 04:00:54;;;;;;;;;;;;;;;16.97;52.71;101324.78;5070468;28;19999;-53
2022/07/16 04:03:20;;;;;;;;;;;;;;;16.97;52.77;101319.47;5070736;28;20286;-53
2022/07/16 04:05:45;;;;;;;;;;;;;;;17.00;52.83;101321.03;5078205;28;20352;-53
2022/07/16 04:08:11;;;;;;;;;;;;;;;17.00;52.81;101313.94;5070245;28;19929;-55
2022/07/16 04:10:36;;;;;;;;;;;;;;;17.02;52.95;101322.59;5076079;28;20311;-56
2022/07/16 04:13:02;;;;;;;;;;;;;;;17.02;52.94;101317.28;5073316;28;19952;-54
2022/07/16 04:15:27;;;;;;;;;;;;;;;17.02;52.85;101319.94;5071045;28;20018;-56
2022/07/16 04:17:52;;;;;;;;;;;;;;;17.02;52.86;101317.28;5075870;28;19970;-55
2022/07/16 04:20:17;;;;;;;;;;;;;;;17.00;52.88;101319.25;5070344;28;19980;-54
2022/07/16 04:22:43;;;;;;;;;;;;;;;17.00;52.86;101305.94;5071659;28;20082;-55
2022/07/16 04:25:08;;;;;;;;;;;;;;;16.99;52.98;101296.28;5070952;28;19932;-54
2022/07/16 04:27:34;;;;;;;;;;;;;;;17.00;53.21;101297.97;5071255;28;20001;-54
2022/07/16 04:29:59;;;;;;;;;;;;;;;16.99;53.29;101296.28;5066111;28;20307;-53
2022/07/16 04:32:24;;;;;;;;;;;;;;;16.99;53.49;101290.97;5073634;28;20410;-56
2022/07/16 04:34:50;;;;;;;;;;;;;;;16.98;53.49;101289.25;5064181;28;20005;-55
2022/07/16 04:37:15;;;;;;;;;;;;;;;16.97;53.67;101276.06;5072452;28;19998;-55
2022/07/16 04:39:40;;;;;;;;;;;;;;;16.94;53.79;101282.44;5069984;28;20627;-55
2022/07/16 04:42:05;;;;;;;;;;;;;;;16.94;53.92;101277.13;5067036;28;20310;-56
2022/07/16 04:44:31;;;;;;;;;;;;;;;16.94;54.08;101276.28;5075021;28;19920;-55
2022/07/16 04:46:56;;;;;;;;;;;;;;;16.92;53.98;101271.94;5068617;28;20371;-55
2022/07/16 04:49:21;;;;;;;;;;;;;;;16.92;54.09;101263.97;5069662;28;19924;-55
2022/07/16 04:51:47;;;;;;;;;;;;;;;16.93;54.15;101264.81;5070665;28;19924;-54
2022/07/16 04:54:12;;;;;;;;;;;;;;;16.92;54.37;101257.78;5074337;28;19920;-55
2022/07/16 04:56:37;;;;;;;;;;;;;;;16.90;54.37;101259.72;5079347;28;19921;-55
2022/07/16 04:59:02;;;;;;;;;;;;;;;16.90;54.46;101260.56;5070305;28;19927;-54
2022/07/16 05:01:28;;;;;;;;;;;;;;;16.91;54.54;101264.94;5068889;28;19916;-54
2022/07/16 05:03:53;;;;;;;;;;;;;;;16.90;54.73;101255.25;5072776;28;19957;-56
2022/07/16 05:06:18;;;;;;;;;;;;;;;16.89;54.81;101255.38;5073103;28;20014;-52
2022/07/16 05:08:44;;;;;;;;;;;;;;;16.88;54.88;101257.19;5066334;28;19916;-52
2022/07/16 05:11:10;;;;;;;;;;;;;;;16.86;54.87;101258.28;5067688;28;19921;-53
2022/07/16 05:13:35;;;;;;;;;;;;;;;16.84;55.04;101254.88;5076885;28;19962;-55
2022/07/16 05:16:01;;;;;;;;;;;;;;;16.83;55.05;101258.50;5065591;28;19927;-55
2022/07/16 05:18:26;;;;;;;;;;;;;;;16.82;55.18;101256.81;5055800;28;20443;-56
2022/07/16 05:20:52;;;;;;;;;;;;;;;16.81;55.41;101252.47;5051159;28;19935;-56
2022/07/16 05:23:17;;;;;;;;;;;;;;;16.82;55.53;101251.50;5069027;28;19922;-56
2022/07/16 05:25:42;;;;;;;;;;;;;;;16.82;55.49;101241.69;5068366;28;20047;-56
2022/07/16 05:28:08;;;;;;;;;;;;;;;16.82;55.63;101236.38;5069436;28;19917;-56
2022/07/16 05:30:33;;;;;;;;;;;;;;;16.81;55.75;101236.50;5065291;28;19921;-56
2022/07/16 05:32:58;;;;;;;;;;;;;;;16.79;57.98;101227.81;5068591;28;20411;-55
2022/07/16 05:35:24;;;;;;;;;;;;;;;16.77;57.56;101222.63;5072118;28;20333;-54
2022/07/16 05:37:49;;;;;;;;;;;;;;;16.77;57.38;101226.09;5072684;28;19926;-57
2022/07/16 05:40:15;;;;;;;;;;;;;;;16.76;57.17;101227.06;5067295;28;20756;-56
2022/07/16 05:42:40;;;;;;;;;;;;;;;16.74;57.17;101221.03;5074096;28;19916;-55
2022/07/16 05:45:06;;;;;;;;;;;;;;;16.68;57.15;101223.31;5071199;28;19920;-56
2022/07/16 05:47:33;;;;;;;;;;;;;;;16.58;57.38;101213.38;5066151;28;19954;-55
2022/07/16 05:49:59;;;;;;;;;;;;;;;16.50;57.47;101220.25;5070701;28;19919;-55
2022/07/16 05:52:24;;;;;;;;;;;;;;;16.42;57.57;101226.97;5070608;28;20287;-53
2022/07/16 05:54:50;;;;;;;;;;;;;;;16.36;57.98;101230.09;5072943;28;19924;-55
2022/07/16 05:57:15;;;;;;;;;;;;;;;16.32;58.01;101239.25;5066583;28;19920;-55
2022/07/16 05:59:40;;;;;;;;;;;;;;;16.25;58.28;101233.53;5065257;28;19954;-55
2022/07/16 06:02:06;;;;;;;;;;;;;;;16.19;58.56;101249.91;5067349;28;19912;-55
2022/07/16 06:04:31;;;;;;;;;;;;;;;16.11;58.95;101242.50;5059416;28;19958;-56
2022/07/16 06:06:56;;;;;;;;;;;;;;;16.04;59.10;101228.00;5068295;28;19917;-55
2022/07/16 06:09:22;;;;;;;;;;;;;;;16.01;59.12;101228.22;5066489;28;19962;-56
2022/07/16 06:11:48;;;;;;;;;;;;;;;15.99;59.30;101230.13;5067287;28;19917;-54
2022/07/16 06:14:13;;;;;;;;;;;;;;;15.97;59.32;101240.03;5072908;28;20291;-57
2022/07/16 06:16:39;;;;;;;;;;;;;;;15.91;59.64;101230.69;5066218;28;19973;-56
2022/07/16 06:19:05;;;;;;;;;;;;;;;15.85;59.84;101234.66;5065545;28;20027;-57
2022/07/16 06:21:30;;;;;;;;;;;;;;;15.89;60.08;101247.69;5070984;28;20382;-57
2022/07/16 06:23:55;;;;;;;;;;;;;;;15.89;59.96;101237.09;5063350;28;19920;-55
2022/07/16 06:26:21;;;;;;;;;;;;;;;15.88;60.26;101248.66;5057739;28;20316;-59
2022/07/16 06:28:46;;;;;;;;;;;;;;;15.82;61.00;101229.53;5065575;28;19947;-59
2022/07/16 06:31:11;;;;;;;;;;;;;;;15.79;60.83;101236.88;5069198;28;19927;-57
2022/07/16 06:33:37;;;;;;;;;;;;;;;15.79;60.91;101237.72;5067729;28;19922;-56
2022/07/16 06:36:03;;;;;;;;;;;;;;;15.82;60.84;101253.41;5054395;28;19919;-56
2022/07/16 06:38:29;;;;;;;;;;;;;;;15.83;61.08;101233.03;5061243;28;19919;-52
2022/07/16 06:40:54;;;;;;;;;;;;;;;15.85;61.05;101239.13;5063174;28;19917;-54
2022/07/16 06:43:19;;;;;;;;;;;;;;;15.85;60.98;101232.00;5063773;28;19939;-53
2022/07/16 06:45:45;;;;;;;;;;;;;;;15.87;61.24;101241.66;5066458;28;20287;-53
2022/07/16 06:48:10;;;;;;;;;;;;;;;15.84;61.21;101256.81;5072501;28;20447;-54
2022/07/16 06:50:35;;;;;;;;;;;;;;;15.84;61.22;101251.50;5058909;28;19916;-52
2022/07/16 06:53:01;;;;;;;;;;;;;;;15.83;61.53;101254.28;5053035;28;19920;-56
2022/07/16 06:55:26;;;;;;;;;;;;;;;15.79;61.69;101251.00;5056093;28;19951;-53
2022/07/16 06:57:51;;;;;;;;;;;;;;;15.81;61.92;101251.72;5053628;28;20132;-52
2022/07/16 07:00:17;;;;;;;;;;;;;;;15.84;61.87;101246.19;5057445;28;19920;-56
2022/07/16 07:02:42;;;;;;;;;;;;;;;15.87;61.94;101239.00;5057025;28;19919;-53
2022/07/16 07:05:08;;;;;;;;;;;;;;;15.89;61.82;101248.53;5063520;28;20347;-55
2022/07/16 07:07:33;;;;;;;;;;;;;;;15.92;61.98;101248.31;5059490;28;19921;-55
2022/07/16 07:09:58;;;;;;;;;;;;;;;15.92;62.07;101263.41;5060953;28;19932;-54
2022/07/16 07:12:24;;;;;;;;;;;;;;;15.92;62.09;101252.78;5065472;28;19916;-53
2022/07/16 07:14:49;;;;;;;;;;;;;;;15.93;62.19;101259.81;5066742;28;19958;-56
2022/07/16 07:17:14;;;;;;;;;;;;;;;15.93;62.37;101251.84;5071631;28;19916;-52
2022/07/16 07:19:39;;;;;;;;;;;;;;;15.96;62.61;101264.84;5070087;28;19923;-57
2022/07/16 07:22:05;;;;;;;;;;;;;;;15.98;62.52;101262.94;5078827;22;20317;-61
2022/07/16 07:24:30;;;;;;;;;;;;;;;16.02;62.65;101245.84;5060583;28;20188;-54
2022/07/16 07:26:55;;;;;;;;;;;;;;;16.09;62.93;101264.81;5069032;28;19930;-59
2022/07/16 07:29:21;;;;;;;;;;;;;;;16.18;62.71;101265.97;5069993;28;20309;-59
2022/07/16 07:31:46;;;;;;;;;;;;;;;16.23;62.72;101263.84;5063262;28;19920;-55
2022/07/16 07:34:12;;;;;;;;;;;;;;;16.26;62.87;101277.72;5050636;28;19916;-58
2022/07/16 07:36:37;;;;;;;;;;;;;;;16.30;62.81;101259.75;5053595;28;19924;-59
2022/07/16 07:39:02;;;;;;;;;;;;;;;16.33;62.94;101266.66;5032951;28;20042;-60
2022/07/16 07:41:28;;;;;;;;;;;;;;;16.40;63.35;101286.47;5047565;28;19920;-62
2022/07/16 07:43:53;;;;;;;;;;;;;;;16.43;63.67;101271.16;5044728;28;20008;-59
2022/07/16 07:46:20;;;;;;;;;;;;;;;16.46;63.81;101273.59;5047300;28;20272;-59
2022/07/16 07:48:45;;;;;;;;;;;;;;;16.52;63.71;101263.47;5051731;28;20058;-56
2022/07/16 07:51:10;;;;;;;;;;;;;;;16.59;63.79;101278.84;5044918;28;20011;-58
2022/07/16 07:53:36;;;;;;;;;;;;;;;16.62;63.85;101280.41;5042540;28;19925;-60
2022/07/16 07:56:01;;;;;;;;;;;;;;;16.68;63.99;101277.31;5022992;28;20011;-57
2022/07/16 07:58:27;;;;;;;;;;;;;;;16.73;64.11;101268.97;5032579;28;19977;-57
2022/07/16 08:00:54;;;;;;;;;;;;;;;16.79;63.46;101281.78;5033858;28;20454;-56
2022/07/16 08:03:19;;;;;;;;;;;;;;;16.82;63.49;101334.72;5042812;28;20395;-58
2022/07/16 08:05:45;;;;;;;;;;;;;;;16.70;63.87;101322.34;5035450;28;19947;-62
2022/07/16 08:08:10;;;;;;;;;;;;;;;16.27;64.77;101326.34;5037598;28;19928;-60
2022/07/16 08:10:35;;;;;;;;;;;;;;;15.79;65.92;101333.25;5042640;28;19943;-57
2022/07/16 08:13:01;;;;;;;;;;;;;;;15.46;66.64;101337.31;5041206;28;19925;-57
2022/07/16 08:15:26;;;;;;;;;;;;;;;15.26;67.49;101324.56;5044785;28;20007;-58
2022/07/16 08:17:51;;;;;;;;;;;;;;;15.14;68.03;101320.94;5048042;28;19921;-58
2022/07/16 08:20:17;;;;;;;;;;;;;;;15.09;67.91;101326.53;5042490;28;19928;-57
2022/07/16 08:22:42;;;;;;;;;;;;;;;15.03;68.20;101322.50;5037363;28;19928;-57
2022/07/16 08:27:51;;;;;;;;;;;;;;;14.94;68.14;101323.97;5044198;28;19928;-56
2022/07/16 08:30:17;;;;;;;;;;;;;;;14.92;68.63;101319.75;5043769;28;19917;-57
2022/07/16 08:32:43;;;;;;;;;;;;;;;14.96;68.46;101329.19;5047263;28;19917;-58
2022/07/16 08:35:08;;;;;;;;;;;;;;;14.97;68.57;101327.38;5026408;28;19971;-56
2022/07/16 08:37:38;;;;;;;;;;;;;;;14.96;68.79;101331.84;5045250;28;19940;-57
2022/07/16 08:40:04;;;;;;;;;;;;;;;15.00;68.75;101343.06;5044915;28;19920;-57
2022/07/16 08:42:32;;;;;;;;;;;;;;;15.03;68.61;101335.75;5043360;28;20486;-56
2022/07/16 08:44:58;;;;;;;;;;;;;;;15.09;68.53;101345.09;5042080;28;19913;-56
2022/07/16 08:47:23;;;;;;;;;;;;;;;15.16;68.28;101334.94;5044251;28;20007;-57
2022/07/16 08:49:49;;;;;;;;;;;;;;;15.22;68.07;101351.25;5023815;28;19917;-56
2022/07/16 08:52:14;;;;;;;;;;;;;;;15.28;67.64;101350.00;5043802;28;19917;-56
2022/07/16 08:54:40;;;;;;;;;;;;;;;15.33;67.00;101347.06;5043662;28;20385;-62
2022/07/16 08:57:08;;;;;;;;;;;;;;;15.40;66.42;101348.31;5044629;28;20325;-55
2022/07/16 08:59:33;;;;;;;;;;;;;;;15.45;65.96;101348.84;5043579;28;19928;-56
2022/07/16 09:01:59;;;;;;;;;;;;;;;15.52;65.15;101374.00;5043917;28;19924;-58
2022/07/16 09:04:24;;;;;;;;;;;;;;;15.64;64.98;101382.06;5036636;28;20368;-58
2022/07/16 09:06:50;;;;;;;;;;;;;;;15.78;64.52;101370.50;5035991;28;20035;-57
2022/07/16 09:09:15;;;;;;;;;;;;;;;15.95;64.07;101374.66;5037126;28;19921;-61
2022/07/16 09:11:40;;;;;;;;;;;;;;;16.12;63.23;101379.59;5040603;28;19924;-58
2022/07/16 09:14:07;;;;;;;;;;;;;;;16.26;62.48;101373.31;5036678;28;19916;-59
2022/07/16 09:16:34;;;;;;;;;;;;;;;16.39;62.09;101369.75;5040905;28;19923;-58
2022/07/16 09:19:02;;;;;;;;;;;;;;;16.52;61.50;101381.19;5039865;28;19917;-58
2022/07/16 09:21:28;;;;;;;;;;;;;;;16.67;61.32;101392.53;5039260;28;20272;-59
2022/07/16 09:23:53;;;;;;;;;;;;;;;16.80;60.49;101375.66;5039817;28;20393;-56
2022/07/16 09:26:18;;;;;;;;;;;;;;;16.88;59.99;101371.47;5041682;28;19928;-56
2022/07/16 09:28:48;;;;;;;;;;;;;;;16.98;59.42;101378.78;5041864;28;19921;-56
2022/07/16 09:31:32;;;;;;;;;;;;;;;17.06;58.72;101398.50;5042787;28;19927;-57
2022/07/16 09:34:01;;;;;;;;;;;;;;;17.16;57.50;101376.56;5045036;28;19924;-57
2022/07/16 09:36:27;;;;;;;;;;;;;;;17.24;56.76;101368.84;5041774;28;19942;-60
2022/07/16 09:38:52;;;;;;;;;;;;;;;17.32;56.14;101387.72;5043632;28;19924;-57
2022/07/16 09:41:19;;;;;;;;;;;;;;;17.38;56.03;101402.38;5043458;28;19922;-58
2022/07/16 09:43:45;;;;;;;;;;;;;;;17.46;54.99;101447.84;5041128;28;20350;-56
2022/07/16 09:46:15;;;;;;;;;;;;;;;17.31;52.68;101460.53;5037179;28;19917;-56
2022/07/16 09:48:42;;;;;;;;;;;;;;;16.99;53.81;101482.38;5042334;28;19921;-59
2022/07/16 09:51:13;;;;;;;;;;;;;;;16.68;54.50;101479.25;5041335;28;19919;-59
2022/07/16 09:53:40;;;;;;;;;;;;;;;16.15;56.64;101469.66;5042529;28;19919;-58
2022/07/16 09:56:26;;;;;;;;;;;;;;;15.55;58.58;101493.13;5022449;28;19931;-57
2022/07/16 09:58:54;;;;;;;;;;;;;;;15.01;60.48;101493.19;5041459;28;19928;-56
2022/07/16 10:01:19;;;;;;;;;;;;;;;14.62;61.82;101459.34;5041551;28;19917;-57
2022/07/16 10:03:46;;;;;;;;;;;;;;;14.37;62.69;101472.44;5040855;28;19946;-61
2022/07/16 10:06:11;;;;;;;;;;;;;;;14.21;63.59;101460.16;5042444;28;19932;-58
2022/07/16 10:08:38;;;;;;;;;;;;;;;14.18;64.05;101481.50;5039164;28;19920;-59
2022/07/16 10:11:04;;;;;;;;;;;;;;;14.18;64.28;101473.56;5039610;28;20122;-56
2022/07/16 10:13:30;;;;;;;;;;;;;;;14.20;64.56;101474.34;5041014;28;19921;-56
2022/07/16 10:15:56;;;;;;;;;;;;;;;14.26;64.68;101471.31;5041394;28;20007;-58
2022/07/16 10:18:40;;;;;;;;;;;;;;;14.31;65.03;101478.97;5041935;28;20443;-56
2022/07/16 10:21:18;;;;;;;;;;;;;;;14.40;65.22;101474.91;5044188;28;19995;-56
2022/07/16 10:24:03;;;;;;;;;;;;;;;14.50;65.17;101480.47;5041923;28;19920;-56
2022/07/16 10:26:28;;;;;;;;;;;;;;;14.61;65.70;101478.84;5042072;28;19971;-55
2022/07/16 10:28:54;;;;;;;;;;;;;;;14.76;65.30;101485.00;5041452;28;19959;-60
2022/07/16 10:31:35;;;;;;;;;;;;;;;14.95;65.02;101486.47;5041089;28;19955;-60
2022/07/16 10:34:13;;;;;;;;;;;;;;;15.16;64.85;101484.22;5043605;28;20021;-56
2022/07/16 10:36:45;;;;;;;;;;;;;;;15.44;64.63;101482.41;5040316;28;20390;-60
2022/07/16 10:39:14;;;;;;;;;;;;;;;15.69;64.09;101486.06;5041037;28;20023;-61
2022/07/16 10:41:50;;;;;;;;;;;;;;;15.93;63.28;101486.22;5035534;28;19932;-59
2022/07/16 10:44:15;;;;;;;;;;;;;;;16.11;62.46;101520.41;5037059;28;19970;-58
2022/07/16 10:46:58;;;;;;;;;;;;;;;16.23;61.29;101505.47;5033328;28;20011;-59
2022/07/16 10:49:27;;;;;;;;;;;;;;;16.33;60.35;101484.41;5036886;28;19917;-56
2022/07/16 10:51:58;;;;;;;;;;;;;;;16.46;59.98;101488.75;5038614;28;19921;-57
2022/07/16 10:54:25;;;;;;;;;;;;;;;16.63;59.40;101492.00;5037726;28;19913;-57
2022/07/16 10:56:51;;;;;;;;;;;;;;;16.81;59.06;101494.31;5039287;28;19921;-58
2022/07/16 10:59:19;;;;;;;;;;;;;;;16.96;58.39;101498.53;5037135;28;19929;-59
2022/07/16 11:01:46;;;;;;;;;;;;;;;17.08;58.30;101527.84;5038317;28;19923;-57
2022/07/16 11:04:12;;;;;;;;;;;;;;;17.12;56.81;101527.50;5037585;28;19974;-60
2022/07/16 11:06:39;;;;;;;;;;;;;;;17.15;55.02;101502.50;5036386;28;19917;-59
2022/07/16 11:09:05;;;;;;;;;;;;;;;17.21;53.99;101525.97;5039844;28;19918;-59
2022/07/16 11:11:31;;;;;;;;;;;;;;;17.32;52.13;101520.69;5039230;28;19920;-60
2022/07/16 11:13:58;;;;;;;;;;;;;;;17.43;50.96;101503.94;5032787;28;19924;-57
2022/07/16 11:16:23;;;;;;;;;;;;;;;17.56;50.02;101490.59;5035383;28;19920;-59
2022/07/16 11:18:49;;;;;;;;;;;;;;;17.66;49.40;101488.91;5041157;28;19917;-62
2022/07/16 11:21:14;;;;;;;;;;;;;;;17.77;49.47;101487.25;5043414;28;20019;-61
2022/07/16 11:23:56;;;;;;;;;;;;;;;17.88;49.21;101516.56;5043045;28;19927;-62
2022/07/16 11:26:22;;;;;;;;;;;;;;;17.97;48.10;101497.22;5044690;28;19920;-60
2022/07/16 11:28:53;;;;;;;;;;;;;;;18.09;48.32;101491.91;5037080;28;19920;-60
2022/07/16 11:31:33;;;;;;;;;;;;;;;18.17;47.73;101501.97;5036898;28;19970;-59
2022/07/16 11:33:59;;;;;;;;;;;;;;;18.22;47.18;101498.00;5042046;28;19967;-57
2022/07/16 11:36:28;;;;;;;;;;;;;;;18.26;46.95;101515.41;5038482;28;19917;-58
2022/07/16 11:38:57;;;;;;;;;;;;;;;18.26;47.39;101547.38;5043436;28;19920;-57
2022/07/16 11:41:23;;;;;;;;;;;;;;;18.19;48.02;101505.38;5036871;28;20398;-60
2022/07/16 11:43:48;;;;;;;;;;;;;;;18.18;48.48;101512.53;5032984;28;19916;-61
2022/07/16 11:46:20;;;;;;;;;;;;;;;18.23;48.60;101539.63;5037533;28;19921;-60
2022/07/16 11:48:46;;;;;;;;;;;;;;;18.25;48.03;101537.69;5036939;28;20375;-59
2022/07/16 11:51:11;;;;;;;;;;;;;;;18.31;47.74;101527.53;5021915;28;19927;-58
2022/07/16 11:53:37;;;;;;;;;;;;;;;18.34;47.44;101506.81;5036584;28;19913;-60
2022/07/16 11:56:03;;;;;;;;;;;;;;;18.42;46.12;101508.88;5040324;28;19923;-61
2022/07/16 11:58:29;;;;;;;;;;;;;;;18.51;45.53;101517.97;5039183;28;19920;-62
2022/07/16 12:00:54;;;;;;;;;;;;;;;18.63;43.78;101542.81;5045980;28;19924;-58
2022/07/16 12:03:20;;;;;;;;;;;;;;;18.72;43.59;101521.59;5044994;28;19916;-59
2022/07/16 12:05:45;;;;;;;;;;;;;;;18.82;42.73;101515.53;5044827;28;20051;-59
2022/07/16 12:08:11;;;;;;;;;;;;;;;18.91;43.15;101511.25;5044762;28;19963;-62
2022/07/16 12:10:37;;;;;;;;;;;;;;;19.06;42.72;101522.56;5045937;28;19916;-59
2022/07/16 12:13:11;;;;;;;;;;;;;;;19.22;42.79;101514.94;5049582;28;19921;-60
2022/07/16 12:15:59;;;;;;;;;;;;;;;19.34;42.37;101505.97;5047542;28;19959;-62
2022/07/16 12:18:25;;;;;;;;;;;;;;;19.39;40.89;101518.91;5043989;28;19963;-57
2022/07/16 12:20:51;;;;;;;;;;;;;;;19.38;41.37;101524.34;5044187;28;20036;-60
2022/07/16 12:23:33;;;;;;;;;;;;;;;19.41;40.38;101537.44;5040956;28;19948;-59
2022/07/16 12:26:02;;;;;;;;;;;;;;;19.46;40.51;101525.41;5039854;28;19925;-61
2022/07/16 12:28:28;;;;;;;;;;;;;;;19.53;40.48;101599.66;5039948;28;19920;-58
2022/07/16 12:30:55;;;;;;;;;;;;;;;19.60;39.92;101569.66;5042382;28;19928;-57
2022/07/16 12:33:21;;;;;;;;;;;;;;;19.63;39.35;101541.84;5042192;28;19955;-59
2022/07/16 12:36:05;;;;;;;;;;;;;;;19.66;38.97;101536.25;5039429;28;19970;-59